Time;durP1;ratioP1;P1;durP2;ratioP2;P2;SDS_P1;SDS_P2;PMS_P1;PMS_P2;Temp;Humidity;BMP_temperature;BMP_pressure;BME280_temperature;BME280_humidity;BME280_pressure;Samples;Min_cycle;Max_cycle;Signal;HPM_P1;HPM_P2
2024/01/05 00:01:41;;;;;;;1.77;1.00;;;4.40;99.90;;;;;;5004898;28;20034;-81
2024/01/05 00:04:07;;;;;;;4.45;1.42;;;4.30;99.90;;;;;;5025861;28;20109;-80
2024/01/05 00:06:36;;;;;;;1.73;1.20;;;4.30;99.90;;;;;;5010870;28;20120;-81
2024/01/05 00:09:02;;;;;;;1.95;1.33;;;4.30;99.90;;;;;;5030298;28;20071;-80
2024/01/05 00:11:28;;;;;;;6.47;1.88;;;4.30;99.90;;;;;;5010209;28;20045;-80
2024/01/05 00:13:53;;;;;;;3.28;1.73;;;4.30;99.90;;;;;;5008656;28;20051;-81
2024/01/05 00:16:21;;;;;;;3.92;1.75;;;4.30;99.90;;;;;;5010509;28;20045;-81
2024/01/05 00:18:47;;;;;;;1.15;0.80;;;4.30;99.90;;;;;;5029573;28;20053;-81
2024/01/05 00:21:20;;;;;;;2.20;1.40;;;4.30;99.90;;;;;;5020283;28;20045;-80
2024/01/05 00:23:47;;;;;;;1.45;1.30;;;4.30;99.90;;;;;;5011607;28;20107;-82
2024/01/05 00:26:13;;;;;;;8.63;3.05;;;4.20;99.90;;;;;;5029813;28;20119;-81
2024/01/05 00:28:38;;;;;;;1.77;1.00;;;4.20;99.90;;;;;;5027165;28;20782;-82
2024/01/05 00:31:04;;;;;;;5.15;1.77;;;4.20;99.90;;;;;;5025297;28;20132;-80
2024/01/05 00:33:30;;;;;;;2.38;1.05;;;4.20;99.90;;;;;;5025801;28;20176;-81
2024/01/05 00:35:56;;;;;;;2.92;2.20;;;4.20;99.90;;;;;;5044203;28;20451;-80
2024/01/05 00:38:21;;;;;;;11.30;1.58;;;4.10;99.90;;;;;;5023215;28;20042;-80
2024/01/05 00:40:47;;;;;;;1.52;0.95;;;4.20;99.90;;;;;;5016225;28;20038;-79
2024/01/05 00:43:13;;;;;;;2.58;1.42;;;4.10;99.90;;;;;;5029019;28;20163;-81
2024/01/05 00:45:39;;;;;;;2.50;0.95;;;4.10;99.90;;;;;;5008633;28;20038;-80
2024/01/05 00:48:05;;;;;;;4.18;1.42;;;4.10;99.90;;;;;;5013538;28;20044;-81
2024/01/05 00:50:30;;;;;;;0.88;0.80;;;4.10;99.90;;;;;;5026188;28;20120;-80
2024/01/05 00:52:56;;;;;;;3.50;1.58;;;4.10;99.90;;;;;;5025645;28;20145;-81
2024/01/05 00:55:23;;;;;;;1.30;0.70;;;4.10;99.90;;;;;;5010506;28;20037;-80
2024/01/05 00:57:52;;;;;;;3.60;1.70;;;4.10;99.90;;;;;;5008379;28;20045;-80
2024/01/05 01:00:18;;;;;;;3.50;1.80;;;4.10;99.90;;;;;;5027527;28;20389;-81
2024/01/05 01:02:43;;;;;;;2.88;1.38;;;4.10;99.90;;;;;;5026069;28;20133;-80
2024/01/05 01:05:09;;;;;;;3.65;1.73;;;4.10;99.90;;;;;;5002906;28;20041;-81
2024/01/05 01:07:35;;;;;;;7.13;1.35;;;4.00;99.90;;;;;;5010085;28;20049;-80
2024/01/05 01:10:01;;;;;;;6.07;2.03;;;4.00;99.90;;;;;;5024104;28;20044;-81
2024/01/05 01:12:27;;;;;;;1.88;1.63;;;4.00;99.90;;;;;;5012447;28;20038;-80
2024/01/05 01:14:53;;;;;;;5.97;1.73;;;4.00;99.90;;;;;;5022313;28;20135;-80
2024/01/05 01:17:19;;;;;;;1.55;1.05;;;4.00;99.90;;;;;;5023680;28;20521;-80
2024/01/05 01:19:45;;;;;;;1.15;1.02;;;4.10;99.90;;;;;;5023102;28;20038;-81
2024/01/05 01:22:10;;;;;;;3.53;1.90;;;4.00;99.90;;;;;;5022890;28;20045;-80
2024/01/05 01:24:36;;;;;;;4.43;1.90;;;4.00;99.90;;;;;;5018885;28;20038;-80
2024/01/05 01:27:02;;;;;;;2.15;1.17;;;4.10;99.90;;;;;;5012016;28;20036;-80
2024/01/05 01:29:27;;;;;;;1.60;1.08;;;4.00;99.90;;;;;;5003532;28;20470;-81
2024/01/05 01:31:53;;;;;;;4.68;1.98;;;4.00;99.90;;;;;;5025871;28;20033;-80
2024/01/05 01:34:19;;;;;;;1.63;0.85;;;4.00;99.90;;;;;;5016715;28;20068;-79
2024/01/05 01:36:45;;;;;;;6.00;1.45;;;4.00;99.90;;;;;;5026631;28;20597;-81
2024/01/05 01:39:11;;;;;;;1.67;1.52;;;4.00;99.90;;;;;;5024853;28;20042;-81
2024/01/05 01:41:37;;;;;;;6.13;1.33;;;4.00;99.90;;;;;;5010459;28;20045;-80
2024/01/05 01:44:03;;;;;;;3.25;1.15;;;4.00;99.90;;;;;;5012744;28;20052;-80
2024/01/05 01:46:31;;;;;;;1.45;1.17;;;4.00;99.90;;;;;;5023413;28;20044;-80
2024/01/05 01:48:57;;;;;;;1.73;1.05;;;4.00;99.90;;;;;;5026730;28;20123;-80
2024/01/05 01:51:23;;;;;;;2.75;1.45;;;4.00;99.90;;;;;;5018081;28;20069;-80
2024/01/05 01:53:50;;;;;;;2.80;1.52;;;4.00;99.90;;;;;;5020468;28;20080;-80
2024/01/05 01:56:16;;;;;;;2.28;1.77;;;4.00;99.90;;;;;;5012998;28;20041;-80
2024/01/05 01:58:44;;;;;;;6.72;2.08;;;4.00;99.90;;;;;;5020898;28;20038;-81
2024/01/05 02:01:09;;;;;;;2.60;1.40;;;4.00;99.90;;;;;;5024345;28;20049;-80
2024/01/05 02:03:35;;;;;;;1.45;1.17;;;4.00;99.90;;;;;;5029858;28;20057;-80
2024/01/05 02:06:01;;;;;;;3.95;1.40;;;4.10;99.90;;;;;;5022152;28;20041;-79
2024/01/05 02:08:27;;;;;;;1.40;0.85;;;4.00;99.90;;;;;;5022684;28;20601;-81
2024/01/05 02:10:53;;;;;;;6.35;1.80;;;4.00;99.90;;;;;;5024764;28;20120;-80
2024/01/05 02:13:20;;;;;;;1.77;1.38;;;4.00;99.90;;;;;;5007394;28;20044;-80
2024/01/05 02:15:46;;;;;;;7.75;2.17;;;4.10;99.90;;;;;;5011840;28;20037;-80
2024/01/05 02:18:13;;;;;;;1.92;0.95;;;4.10;99.90;;;;;;5008140;28;20040;-81
2024/01/05 02:20:38;;;;;;;1.20;0.57;;;4.10;99.90;;;;;;5021321;28;20030;-81
2024/01/05 02:23:11;;;;;;;1.88;0.93;;;4.10;99.90;;;;;;5023619;28;20184;-82
2024/01/05 02:25:39;;;;;;;1.98;1.65;;;4.10;99.90;;;;;;5024840;28;20068;-80
2024/01/05 02:28:05;;;;;;;1.88;1.35;;;4.10;99.90;;;;;;5018399;28;20085;-81
2024/01/05 02:30:30;;;;;;;4.40;1.33;;;4.10;99.90;;;;;;5006140;28;20073;-81
2024/01/05 02:32:56;;;;;;;2.53;1.50;;;4.10;99.90;;;;;;5019249;28;20037;-81
2024/01/05 02:35:22;;;;;;;4.50;1.55;;;4.10;99.90;;;;;;5025922;28;20093;-81
2024/01/05 02:37:48;;;;;;;6.22;1.65;;;4.10;99.90;;;;;;5027461;28;20512;-81
2024/01/05 02:40:13;;;;;;;4.90;1.88;;;4.10;99.90;;;;;;5023358;28;20049;-81
2024/01/05 02:42:39;;;;;;;5.78;1.90;;;4.00;99.90;;;;;;5025474;28;20428;-82
2024/01/05 02:45:05;;;;;;;2.35;1.27;;;4.10;99.90;;;;;;5022374;28;20068;-82
2024/01/05 02:47:31;;;;;;;2.70;1.92;;;4.10;99.90;;;;;;5006049;28;20474;-81
2024/01/05 02:49:57;;;;;;;1.45;0.90;;;4.10;99.90;;;;;;5023556;28;20045;-81
2024/01/05 02:52:22;;;;;;;1.73;1.05;;;4.10;99.90;;;;;;5008623;28;20045;-81
2024/01/05 02:54:49;;;;;;;3.67;1.20;;;4.10;99.90;;;;;;5024122;28;20056;-79
2024/01/05 02:57:15;;;;;;;2.17;1.98;;;4.10;99.90;;;;;;5004434;28;20042;-82
2024/01/05 02:59:41;;;;;;;4.07;1.30;;;4.10;99.90;;;;;;5021830;28;20064;-81
2024/01/05 03:02:06;;;;;;;1.30;1.10;;;4.10;99.90;;;;;;5003637;28;20041;-79
2024/01/05 03:04:32;;;;;;;0.98;0.50;;;4.20;99.90;;;;;;5003430;28;20037;-81
2024/01/05 03:06:58;;;;;;;0.60;0.50;;;4.10;99.90;;;;;;5023198;28;20063;-81
2024/01/05 03:09:23;;;;;;;2.00;1.20;;;4.10;99.90;;;;;;5005292;28;20489;-81
2024/01/05 03:11:49;;;;;;;1.13;0.70;;;4.10;99.90;;;;;;5006297;28;20045;-81
2024/01/05 03:14:15;;;;;;;4.25;1.02;;;4.10;99.90;;;;;;5002076;28;20053;-80
2024/01/05 03:16:41;;;;;;;1.10;0.75;;;4.10;99.90;;;;;;5002571;28;20034;-80
2024/01/05 03:19:07;;;;;;;2.22;1.02;;;4.20;99.90;;;;;;5021170;28;20040;-81
2024/01/05 03:21:32;;;;;;;1.88;1.40;;;4.20;99.90;;;;;;5006493;28;20038;-79
2024/01/05 03:23:58;;;;;;;2.22;1.13;;;4.10;99.90;;;;;;5022692;28;20045;-80
2024/01/05 03:26:24;;;;;;;5.30;1.23;;;4.20;99.90;;;;;;5015612;28;20053;-80
2024/01/05 03:28:49;;;;;;;2.75;1.38;;;4.20;99.90;;;;;;5022875;28;20042;-80
2024/01/05 03:31:15;;;;;;;2.55;1.75;;;4.20;99.90;;;;;;5021104;28;20043;-80
2024/01/05 03:33:41;;;;;;;1.38;0.80;;;4.20;99.90;;;;;;5001829;28;20141;-81
2024/01/05 03:36:08;;;;;;;1.40;0.77;;;4.20;99.90;;;;;;5023344;28;20390;-81
2024/01/05 03:38:34;;;;;;;1.02;0.60;;;4.10;99.90;;;;;;5004802;28;20041;-81
2024/01/05 03:40:59;;;;;;;2.17;1.33;;;4.10;99.90;;;;;;5009187;28;20042;-80
2024/01/05 03:43:25;;;;;;;1.45;0.85;;;4.10;99.90;;;;;;5006041;28;20045;-80
2024/01/05 03:45:51;;;;;;;1.33;0.95;;;4.10;99.90;;;;;;5020708;28;20044;-81
2024/01/05 03:48:16;;;;;;;1.50;1.13;;;4.20;99.90;;;;;;5013685;28;20038;-81
2024/01/05 03:50:42;;;;;;;1.73;0.98;;;4.20;99.90;;;;;;5006638;28;20042;-80
2024/01/05 03:53:08;;;;;;;2.40;0.80;;;4.20;99.90;;;;;;5004508;28;20116;-81
2024/01/05 03:55:34;;;;;;;2.45;0.95;;;4.20;99.90;;;;;;5018465;28;20041;-81
2024/01/05 03:58:00;;;;;;;0.82;0.65;;;4.20;99.90;;;;;;5003777;28;20037;-81
2024/01/05 04:00:26;;;;;;;1.77;0.90;;;4.20;99.90;;;;;;5012317;28;20053;-81
2024/01/05 04:02:51;;;;;;;2.92;1.38;;;4.30;99.90;;;;;;5004593;28;20057;-82
2024/01/05 04:05:17;;;;;;;1.48;0.82;;;4.20;99.90;;;;;;5023563;28;20072;-81
2024/01/05 04:07:43;;;;;;;2.60;1.52;;;4.30;99.90;;;;;;5020708;28;20040;-81
2024/01/05 04:10:09;;;;;;;1.77;0.98;;;4.30;99.90;;;;;;5004645;28;20034;-81
2024/01/05 04:12:35;;;;;;;6.28;0.93;;;4.30;99.90;;;;;;5011934;28;20049;-81
2024/01/05 04:15:00;;;;;;;4.18;2.13;;;4.30;99.90;;;;;;5006346;28;20052;-81
2024/01/05 04:17:26;;;;;;;1.30;1.08;;;4.40;99.90;;;;;;5009422;28;20040;-80
2024/01/05 04:19:52;;;;;;;2.90;1.33;;;4.40;99.90;;;;;;5025954;28;20038;-80
2024/01/05 04:22:18;;;;;;;0.82;0.45;;;4.40;99.90;;;;;;5021553;28;20140;-80
2024/01/05 04:24:43;;;;;;;1.85;1.23;;;4.30;99.90;;;;;;5022299;28;20029;-81
2024/01/05 04:27:09;;;;;;;3.25;1.90;;;4.40;99.90;;;;;;5011452;28;20044;-81
2024/01/05 04:29:34;;;;;;;2.15;0.95;;;4.40;99.90;;;;;;5019924;28;20065;-81
2024/01/05 04:32:00;;;;;;;3.03;1.40;;;4.40;99.90;;;;;;5021767;28;20402;-80
2024/01/05 04:34:26;;;;;;;2.60;1.45;;;4.40;99.90;;;;;;5014743;28;20037;-80
2024/01/05 04:36:52;;;;;;;2.60;0.98;;;4.40;99.90;;;;;;5002392;28;20033;-81
2024/01/05 04:39:17;;;;;;;2.03;1.55;;;4.40;99.90;;;;;;5007462;28;20057;-81
2024/01/05 04:41:43;;;;;;;1.63;1.05;;;4.40;99.90;;;;;;5030358;28;20033;-80
2024/01/05 04:44:09;;;;;;;1.38;0.88;;;4.40;99.90;;;;;;5015138;28;20041;-81
2024/01/05 04:46:35;;;;;;;2.33;1.27;;;4.40;99.90;;;;;;5031049;28;20103;-81
2024/01/05 04:49:00;;;;;;;2.22;0.98;;;4.40;99.90;;;;;;5021367;28;20053;-80
2024/01/05 04:51:26;;;;;;;1.75;1.17;;;4.50;99.90;;;;;;5010053;28;20034;-81
2024/01/05 04:53:52;;;;;;;1.83;1.55;;;4.40;99.90;;;;;;5023443;28;21665;-81
2024/01/05 04:56:18;;;;;;;4.22;1.55;;;4.40;99.90;;;;;;5024070;28;20041;-80
2024/01/05 04:58:44;;;;;;;3.88;1.42;;;4.50;99.90;;;;;;5006048;28;20037;-81
2024/01/05 05:01:09;;;;;;;2.10;1.38;;;4.40;99.90;;;;;;5030595;28;20064;-79
2024/01/05 05:03:35;;;;;;;1.45;1.33;;;4.50;99.90;;;;;;5033063;28;20494;-81
2024/01/05 05:06:01;;;;;;;3.90;2.20;;;4.50;99.90;;;;;;5022691;28;20049;-80
2024/01/05 05:08:27;;;;;;;2.92;1.77;;;4.50;99.90;;;;;;5004355;28;20034;-80
2024/01/05 05:10:53;;;;;;;2.58;1.27;;;4.50;99.90;;;;;;5024583;28;20466;-82
2024/01/05 05:13:19;;;;;;;2.03;1.50;;;4.50;99.90;;;;;;5023311;28;20044;-80
2024/01/05 05:15:45;;;;;;;2.83;1.67;;;4.50;99.90;;;;;;5012267;28;20034;-80
2024/01/05 05:18:10;;;;;;;2.95;1.70;;;4.50;99.90;;;;;;5011920;28;20049;-81
2024/01/05 05:20:36;;;;;;;1.90;1.25;;;4.50;99.90;;;;;;5019278;28;20037;-81
2024/01/05 05:23:02;;;;;;;1.90;1.08;;;4.50;99.90;;;;;;5011455;28;20070;-81
2024/01/05 05:25:28;;;;;;;3.20;1.83;;;4.60;99.90;;;;;;5021244;28;20113;-81
2024/01/05 05:27:53;;;;;;;3.70;2.00;;;4.60;99.90;;;;;;5026960;28;20033;-81
2024/01/05 05:30:19;;;;;;;6.57;2.67;;;4.50;99.90;;;;;;5024223;28;20034;-80
2024/01/05 05:32:45;;;;;;;1.75;1.15;;;4.60;99.90;;;;;;5007341;28;20046;-79
2024/01/05 05:35:11;;;;;;;1.63;1.35;;;4.70;99.90;;;;;;5024882;28;20048;-80
2024/01/05 05:37:36;;;;;;;2.75;1.70;;;4.80;99.90;;;;;;5027545;28;20049;-80
2024/01/05 05:40:03;;;;;;;3.03;1.60;;;4.70;99.90;;;;;;5006521;28;20124;-81
2024/01/05 05:42:28;;;;;;;3.25;2.25;;;4.70;99.90;;;;;;5007792;28;20087;-80
2024/01/05 05:44:54;;;;;;;2.13;1.90;;;4.80;99.90;;;;;;5007271;28;20034;-80
2024/01/05 05:47:20;;;;;;;3.88;1.45;;;4.70;99.90;;;;;;5022164;28;20745;-80
2024/01/05 05:49:46;;;;;;;3.72;1.98;;;4.90;99.90;;;;;;5008579;28;20125;-78
2024/01/05 05:52:11;;;;;;;4.28;2.20;;;4.80;99.90;;;;;;5006090;28;20128;-80
2024/01/05 05:54:37;;;;;;;6.82;2.70;;;4.90;99.90;;;;;;5013584;28;20045;-80
2024/01/05 05:57:07;;;;;;;4.78;2.13;;;4.90;99.90;;;;;;5007446;28;20033;-80
2024/01/05 05:59:32;;;;;;;3.25;1.67;;;4.90;99.90;;;;;;5006889;28;20074;-80
2024/01/05 06:01:58;;;;;;;3.22;1.45;;;4.90;99.90;;;;;;5023725;28;20034;-80
2024/01/05 06:04:24;;;;;;;4.57;2.10;;;5.00;99.90;;;;;;5014371;28;20123;-80
2024/01/05 06:06:50;;;;;;;4.35;2.40;;;4.90;99.90;;;;;;5004778;28;20045;-79
2024/01/05 06:09:16;;;;;;;2.15;1.08;;;5.00;99.90;;;;;;5026000;28;20053;-80
2024/01/05 06:11:41;;;;;;;2.92;1.60;;;5.00;99.90;;;;;;5004640;28;20041;-80
2024/01/05 06:14:07;;;;;;;1.75;1.13;;;5.00;99.90;;;;;;5007159;28;21099;-80
2024/01/05 06:16:33;;;;;;;3.08;2.17;;;5.00;99.90;;;;;;5022424;28;20092;-80
2024/01/05 06:18:59;;;;;;;6.90;2.05;;;5.00;99.90;;;;;;5024609;28;20132;-80
2024/01/05 06:21:25;;;;;;;9.20;2.38;;;5.00;99.90;;;;;;5021744;28;20037;-80
2024/01/05 06:23:51;;;;;;;6.22;2.22;;;5.10;99.90;;;;;;5026260;28;20129;-80
2024/01/05 06:26:16;;;;;;;2.28;1.80;;;5.10;99.90;;;;;;5024544;28;20611;-78
2024/01/05 06:28:42;;;;;;;2.10;1.50;;;5.10;99.90;;;;;;5020911;28;20037;-81
2024/01/05 06:31:08;;;;;;;3.00;2.00;;;5.10;99.90;;;;;;5008294;28;20490;-76
2024/01/05 06:33:34;;;;;;;2.28;1.90;;;5.10;99.90;;;;;;5038481;28;20473;-75
2024/01/05 06:36:00;;;;;;;3.83;2.50;;;5.10;99.90;;;;;;5023619;28;20056;-78
2024/01/05 06:38:26;;;;;;;3.95;2.45;;;5.10;99.90;;;;;;5022044;28;20060;-78
2024/01/05 06:40:51;;;;;;;4.25;2.83;;;5.20;99.90;;;;;;5021632;28;20059;-75
2024/01/05 06:43:17;;;;;;;4.63;2.38;;;5.20;99.90;;;;;;5041600;28;20033;-75
2024/01/05 06:45:43;;;;;;;5.00;2.28;;;5.30;99.90;;;;;;5040287;28;20064;-75
2024/01/05 06:48:08;;;;;;;3.95;2.13;;;5.20;99.90;;;;;;5036206;28;20359;-76
2024/01/05 06:50:34;;;;;;;3.40;1.90;;;5.20;99.90;;;;;;5027253;28;20037;-77
2024/01/05 06:53:00;;;;;;;6.05;2.08;;;5.20;99.90;;;;;;5015736;28;20053;-77
2024/01/05 06:55:25;;;;;;;13.52;3.55;;;5.30;99.90;;;;;;5026988;28;20042;-78
2024/01/05 06:57:51;;;;;;;3.05;2.00;;;5.30;99.90;;;;;;5034133;28;20093;-74
2024/01/05 07:00:17;;;;;;;3.75;2.47;;;5.30;99.90;;;;;;5037380;28;20085;-76
2024/01/05 07:02:43;;;;;;;6.32;3.00;;;5.30;99.90;;;;;;5030249;28;20045;-75
2024/01/05 07:05:09;;;;;;;2.88;1.90;;;5.30;99.90;;;;;;5038487;28;20045;-76
2024/01/05 07:07:34;;;;;;;4.30;2.72;;;5.30;99.90;;;;;;5022374;28;20048;-75
2024/01/05 07:10:00;;;;;;;6.50;2.78;;;5.30;99.90;;;;;;5040411;28;20052;-75
2024/01/05 07:12:29;;;;;;;3.33;2.22;;;5.40;99.90;;;;;;5031516;28;20139;-76
2024/01/05 07:14:55;;;;;;;3.40;2.33;;;5.40;99.90;;;;;;5027993;28;20045;-77
2024/01/05 07:17:21;;;;;;;4.70;2.92;;;5.40;99.90;;;;;;5036813;28;20037;-76
2024/01/05 07:19:46;;;;;;;2.22;1.77;;;5.40;99.90;;;;;;5017029;28;20740;-75
2024/01/05 07:22:12;;;;;;;4.82;2.03;;;5.50;99.90;;;;;;5015591;28;20033;-74
2024/01/05 07:24:38;;;;;;;10.27;3.17;;;5.50;99.90;;;;;;5039750;28;20038;-77
2024/01/05 07:27:05;;;;;;;3.30;1.90;;;5.50;99.90;;;;;;5026873;28;20053;-75
2024/01/05 07:29:31;;;;;;;5.05;3.10;;;5.50;99.90;;;;;;5022619;28;20223;-77
2024/01/05 07:31:56;;;;;;;5.68;4.13;;;5.50;99.90;;;;;;5039735;28;20124;-77
2024/01/05 07:34:22;;;;;;;6.60;2.78;;;5.60;99.90;;;;;;5031170;28;20371;-74
2024/01/05 07:36:48;;;;;;;4.70;3.10;;;5.60;99.90;;;;;;5025219;28;20030;-76
2024/01/05 07:39:15;;;;;;;4.20;3.08;;;5.60;99.90;;;;;;5039975;28;20043;-76
2024/01/05 07:41:41;;;;;;;5.18;3.63;;;5.60;99.90;;;;;;5043447;28;20128;-79
2024/01/05 07:44:07;;;;;;;5.75;3.08;;;5.60;99.90;;;;;;5025419;28;20053;-77
2024/01/05 07:46:33;;;;;;;6.85;2.88;;;5.70;99.90;;;;;;5039555;28;20042;-76
2024/01/05 07:48:59;;;;;;;6.93;3.30;;;5.70;99.90;;;;;;5036985;28;21051;-78
2024/01/05 07:51:24;;;;;;;4.18;2.55;;;5.70;99.90;;;;;;5035972;28;20037;-75
2024/01/05 07:53:50;;;;;;;2.80;1.85;;;5.70;99.90;;;;;;5037408;28;20065;-78
2024/01/05 07:56:17;;;;;;;6.90;3.35;;;5.80;99.90;;;;;;5020382;28;20093;-74
2024/01/05 07:58:46;;;;;;;4.45;2.42;;;5.80;99.90;;;;;;5038546;28;20069;-75
2024/01/05 08:01:18;;;;;;;3.45;2.17;;;5.80;99.90;;;;;;5037457;28;20045;-76
2024/01/05 08:03:44;;;;;;;7.20;3.65;;;5.90;99.90;;;;;;5034910;28;20085;-76
2024/01/05 08:06:15;;;;;;;4.68;2.97;;;5.90;99.90;;;;;;5020807;28;20045;-78
2024/01/05 08:08:43;;;;;;;4.18;2.90;;;6.00;99.90;;;;;;5039747;28;20123;-77
2024/01/05 08:11:10;;;;;;;6.43;3.78;;;6.00;99.90;;;;;;5017138;28;20052;-76
2024/01/05 08:13:36;;;;;;;4.97;3.20;;;5.90;99.90;;;;;;5026603;28;20048;-76
2024/01/05 08:16:02;;;;;;;4.85;2.75;;;6.00;99.90;;;;;;5037630;28;20050;-77
2024/01/05 08:18:27;;;;;;;2.55;2.13;;;6.00;99.90;;;;;;5042229;28;20052;-78
2024/01/05 08:20:53;;;;;;;3.53;2.20;;;6.00;99.90;;;;;;5057288;28;20033;-75
2024/01/05 08:23:19;;;;;;;4.20;2.65;;;6.00;99.90;;;;;;5057343;28;20053;-75
2024/01/05 08:25:45;;;;;;;4.30;2.78;;;6.00;99.90;;;;;;5038611;28;20039;-75
2024/01/05 08:28:10;;;;;;;4.00;2.42;;;6.10;99.90;;;;;;5025402;28;20060;-77
2024/01/05 08:30:36;;;;;;;4.10;2.80;;;6.10;99.90;;;;;;5038493;28;20145;-76
2024/01/05 08:33:02;;;;;;;4.68;2.72;;;6.10;99.90;;;;;;5042467;28;20053;-77
2024/01/05 08:35:28;;;;;;;2.50;1.92;;;6.10;99.90;;;;;;5041159;28;20045;-77
2024/01/05 08:37:54;;;;;;;3.42;2.40;;;6.10;99.90;;;;;;5040732;28;20037;-75
2024/01/05 08:40:20;;;;;;;3.08;2.40;;;6.10;99.90;;;;;;5020861;28;20069;-74
2024/01/05 08:42:46;;;;;;;7.75;3.47;;;6.10;99.90;;;;;;5042215;28;20041;-76
2024/01/05 08:45:12;;;;;;;7.35;4.35;;;6.10;99.90;;;;;;5037134;28;20029;-77
2024/01/05 08:47:37;;;;;;;4.40;3.10;;;6.20;99.90;;;;;;5021768;28;20041;-78
2024/01/05 08:50:04;;;;;;;3.67;2.53;;;6.10;99.90;;;;;;5043705;28;20053;-75
2024/01/05 08:52:29;;;;;;;5.78;3.40;;;6.20;99.90;;;;;;5035705;28;20049;-78
2024/01/05 08:54:55;;;;;;;5.35;3.28;;;6.20;99.90;;;;;;5058864;28;20254;-75
2024/01/05 08:57:21;;;;;;;2.75;2.08;;;6.20;99.90;;;;;;5041580;28;20025;-78
2024/01/05 08:59:46;;;;;;;5.95;3.05;;;6.20;99.90;;;;;;5043857;28;20058;-75
2024/01/05 09:02:12;;;;;;;7.20;2.63;;;6.20;99.90;;;;;;5037105;28;20045;-76
2024/01/05 09:04:38;;;;;;;3.10;2.00;;;6.20;99.90;;;;;;5025499;28;20152;-77
2024/01/05 09:07:04;;;;;;;7.20;2.55;;;6.20;99.90;;;;;;5039031;28;20148;-75
2024/01/05 09:09:30;;;;;;;2.45;1.67;;;6.20;99.90;;;;;;5012007;28;20048;-75
2024/01/05 09:11:56;;;;;;;5.88;2.95;;;6.30;99.90;;;;;;5034513;28;20134;-76
2024/01/05 09:14:21;;;;;;;2.88;2.13;;;6.20;99.90;;;;;;5039759;28;20057;-75
2024/01/05 09:16:47;;;;;;;5.70;2.65;;;6.30;99.90;;;;;;5022237;28;20072;-77
2024/01/05 09:19:13;;;;;;;2.85;2.25;;;6.30;99.90;;;;;;5029364;28;20041;-78
2024/01/05 09:21:39;;;;;;;4.35;2.40;;;6.40;99.90;;;;;;5056605;28;20052;-77
2024/01/05 09:24:05;;;;;;;4.72;2.22;;;6.40;99.90;;;;;;5038791;28;20113;-75
2024/01/05 09:26:31;;;;;;;4.50;2.78;;;6.40;99.90;;;;;;5040258;28;20069;-77
2024/01/05 09:28:57;;;;;;;2.47;1.65;;;6.40;99.90;;;;;;5036682;28;20060;-77
2024/01/05 09:31:24;;;;;;;2.45;1.63;;;6.40;99.90;;;;;;5037121;28;20049;-77
2024/01/05 09:33:50;;;;;;;2.17;1.10;;;6.50;99.90;;;;;;5032771;28;20048;-76
2024/01/05 09:36:16;;;;;;;6.70;1.13;;;6.50;99.90;;;;;;5040200;28;20033;-77
2024/01/05 09:38:42;;;;;;;3.50;1.52;;;6.50;99.90;;;;;;5019267;28;20041;-77
2024/01/05 09:41:13;;;;;;;2.30;1.45;;;6.60;99.90;;;;;;5041371;28;20371;-77
2024/01/05 09:43:42;;;;;;;5.07;1.85;;;6.60;99.90;;;;;;5039441;28;20045;-79
2024/01/05 09:46:08;;;;;;;1.88;1.67;;;6.70;99.90;;;;;;5042743;28;20042;-78
2024/01/05 09:48:35;;;;;;;3.67;1.50;;;6.80;99.90;;;;;;5038322;28;20360;-78
2024/01/05 09:51:06;;;;;;;2.25;1.10;;;6.80;99.90;;;;;;5022135;28;20052;-78
2024/01/05 09:53:32;;;;;;;1.52;1.05;;;6.80;99.90;;;;;;5038237;28;20050;-79
2024/01/05 09:55:58;;;;;;;1.23;0.75;;;6.90;99.90;;;;;;5023585;28;20080;-78
2024/01/05 09:58:25;;;;;;;0.95;0.63;;;6.90;99.90;;;;;;5039524;28;20037;-77
2024/01/05 10:00:54;;;;;;;0.82;0.70;;;7.00;99.90;;;;;;5021685;28;20065;-78
2024/01/05 10:03:22;;;;;;;0.45;0.32;;;7.00;99.90;;;;;;5034121;28;20210;-79
2024/01/05 10:05:50;;;;;;;1.00;0.47;;;7.00;99.90;;;;;;5038262;28;20079;-77
2024/01/05 10:08:16;;;;;;;1.63;0.55;;;7.10;99.90;;;;;;5033931;28;20048;-78
2024/01/05 10:10:49;;;;;;;0.30;0.20;;;7.10;99.90;;;;;;5039667;28;20849;-77
2024/01/05 10:13:16;;;;;;;2.47;0.68;;;7.10;99.90;;;;;;5022412;28;20052;-76
2024/01/05 10:16:02;;;;;;;1.42;0.68;;;7.20;99.90;;;;;;5038861;28;20034;-77
2024/01/05 10:18:29;;;;;;;0.13;0.13;;;7.20;99.90;;;;;;5018886;28;20101;-77
2024/01/05 10:20:56;;;;;;;3.15;0.65;;;7.20;99.90;;;;;;5028686;28;20044;-77
2024/01/05 10:23:23;;;;;;;0.60;0.57;;;7.30;99.90;;;;;;5040584;28;20484;-79
2024/01/05 10:25:49;;;;;;;1.00;0.47;;;7.30;99.90;;;;;;5026983;28;20041;-79
2024/01/05 10:28:30;;;;;;;2.45;0.60;;;7.30;99.90;;;;;;5040148;28;20080;-78
2024/01/05 10:31:13;;;;;;;2.25;0.93;;;7.30;99.90;;;;;;5042669;28;20056;-79
2024/01/05 10:33:54;;;;;;;2.20;1.08;;;7.30;99.90;;;;;;5038283;28;20046;-78
2024/01/05 10:36:21;;;;;;;2.40;0.88;;;7.30;99.90;;;;;;5036849;28;20101;-78
2024/01/05 10:38:47;;;;;;;1.50;0.90;;;7.30;99.90;;;;;;5024866;28;20478;-79
2024/01/05 10:41:15;;;;;;;1.48;0.85;;;7.30;99.90;;;;;;5029208;28;20048;-77
2024/01/05 10:43:42;;;;;;;0.95;0.85;;;7.30;99.90;;;;;;5046305;28;20045;-77
2024/01/05 10:46:20;;;;;;;1.10;0.90;;;7.30;99.90;;;;;;5037069;28;20041;-78
2024/01/05 10:48:47;;;;;;;1.45;0.98;;;7.30;99.90;;;;;;5061826;28;20046;-76
2024/01/05 10:51:15;;;;;;;6.45;1.23;;;7.30;99.90;;;;;;5022885;28;20048;-76
2024/01/05 10:53:43;;;;;;;2.88;1.38;;;7.30;99.90;;;;;;5023202;28;20065;-79
2024/01/05 10:56:09;;;;;;;2.03;1.83;;;7.30;99.90;;;;;;5031007;28;20029;-80
2024/01/05 10:58:36;;;;;;;5.18;1.35;;;7.30;99.90;;;;;;5041179;28;20110;-77
2024/01/05 11:01:02;;;;;;;1.98;0.60;;;7.30;99.90;;;;;;5038091;28;20057;-78
2024/01/05 11:03:39;;;;;;;4.13;0.52;;;7.30;99.90;;;;;;5044931;28;20136;-78
2024/01/05 11:06:08;;;;;;;6.90;0.68;;;7.30;99.90;;;;;;5040532;28;20041;-79
2024/01/05 11:08:52;;;;;;;1.27;0.50;;;7.30;99.90;;;;;;5027523;28;20034;-77
2024/01/05 11:12:00;;;;;;;2.85;0.35;;;7.30;99.90;;;;;;5044552;28;20064;-79
2024/01/05 11:14:58;;;;;;;1.35;0.28;;;7.40;99.90;;;;;;5022892;28;20132;-77
2024/01/05 11:17:38;;;;;;;0.95;0.20;;;7.40;99.90;;;;;;5037866;28;20038;-77
2024/01/05 11:20:37;;;;;;;0.15;0.15;;;7.40;99.90;;;;;;5041011;28;20045;-77
2024/01/05 11:23:03;;;;;;;0.17;0.00;;;7.40;99.90;;;;;;5037674;28;20042;-77
2024/01/05 11:25:29;;;;;;;1.33;0.25;;;7.40;99.90;;;;;;5038391;28;20176;-78
2024/01/05 11:27:55;;;;;;;2.38;0.10;;;7.30;99.90;;;;;;5042075;28;20077;-79
2024/01/05 11:30:50;;;;;;;2.30;0.10;;;7.40;99.90;;;;;;5040606;28;20468;-79
2024/01/05 11:33:49;;;;;;;0.22;0.10;;;7.30;99.90;;;;;;5011293;28;20038;-76
2024/01/05 11:36:49;;;;;;;0.00;0.00;;;7.30;99.90;;;;;;5038798;28;20041;-79
2024/01/05 11:39:36;;;;;;;0.00;0.00;;;7.30;99.90;;;;;;5022364;28;20041;-75
2024/01/05 11:42:03;;;;;;;0.00;0.00;;;7.30;99.90;;;;;;5023824;28;20045;-77
2024/01/05 11:44:35;;;;;;;0.17;0.13;;;7.30;99.90;;;;;;5045515;28;20025;-78
2024/01/05 11:47:01;;;;;;;0.15;0.10;;;7.20;99.90;;;;;;5025324;28;20045;-77
2024/01/05 11:49:38;;;;;;;0.90;0.38;;;7.20;99.90;;;;;;5042799;28;20048;-79
2024/01/05 11:52:05;;;;;;;0.10;0.10;;;7.20;99.90;;;;;;5028620;28;20038;-77
2024/01/05 11:54:32;;;;;;;0.30;0.10;;;7.20;99.90;;;;;;5029395;28;20033;-79
2024/01/05 11:57:02;;;;;;;0.15;0.00;;;7.20;99.90;;;;;;5025459;28;20291;-78
2024/01/05 11:59:28;;;;;;;1.48;0.52;;;7.20;99.90;;;;;;5048217;28;20046;-77
2024/01/05 12:01:54;;;;;;;0.40;0.20;;;7.20;99.90;;;;;;5021989;28;20073;-77
2024/01/05 12:04:20;;;;;;;0.00;0.00;;;7.20;99.90;;;;;;5040537;28;20056;-79
2024/01/05 12:06:53;;;;;;;0.00;0.00;;;7.20;99.90;;;;;;5027147;28;20057;-76
2024/01/05 12:09:22;;;;;;;0.85;0.20;;;7.20;99.90;;;;;;5041097;28;20044;-79
2024/01/05 12:11:48;;;;;;;2.97;0.43;;;7.20;99.90;;;;;;5044265;28;20049;-78
2024/01/05 12:14:27;;;;;;;0.52;0.13;;;7.20;99.90;;;;;;5039289;28;20051;-76
2024/01/05 12:16:53;;;;;;;0.00;0.00;;;7.10;99.90;;;;;;5024565;28;20057;-77
2024/01/05 12:19:21;;;;;;;0.85;0.20;;;7.10;99.90;;;;;;5022159;28;20053;-79
2024/01/05 12:21:51;;;;;;;1.75;0.22;;;7.10;99.90;;;;;;5046492;28;20041;-79
2024/01/05 12:24:17;;;;;;;0.10;0.05;;;7.10;99.90;;;;;;5023308;28;20052;-78
2024/01/05 12:26:43;;;;;;;0.10;0.00;;;7.10;99.90;;;;;;5029166;28;20034;-76
2024/01/05 12:29:09;;;;;;;0.00;0.00;;;7.10;99.90;;;;;;5027649;28;20038;-79
2024/01/05 12:31:36;;;;;;;0.90;0.17;;;7.00;99.90;;;;;;5043164;28;20048;-75
2024/01/05 12:34:03;;;;;;;0.10;0.00;;;7.10;99.90;;;;;;5041137;28;20057;-77
2024/01/05 12:36:28;;;;;;;0.10;0.00;;;7.00;99.90;;;;;;5041188;28;20254;-78
2024/01/05 12:39:04;;;;;;;0.00;0.00;;;7.00;99.90;;;;;;5045787;28;20034;-75
2024/01/05 12:41:30;;;;;;;0.00;0.00;;;7.00;99.90;;;;;;5028401;28;20049;-78
2024/01/05 12:43:58;;;;;;;0.00;0.00;;;7.00;99.90;;;;;;5027005;28;20049;-77
2024/01/05 12:46:24;;;;;;;0.00;0.00;;;7.00;99.90;;;;;;5030813;28;20049;-78
2024/01/05 12:48:51;;;;;;;0.20;0.17;;;7.00;99.90;;;;;;5041879;28;20097;-76
2024/01/05 12:51:22;;;;;;;0.00;0.00;;;7.00;99.90;;;;;;5026638;28;20065;-79
2024/01/05 12:53:58;;;;;;;0.00;0.00;;;7.00;99.90;;;;;;5028199;28;20046;-78
2024/01/05 12:56:23;;;;;;;0.00;0.00;;;6.90;99.90;;;;;;5045893;28;20042;-79
2024/01/05 12:58:49;;;;;;;0.22;0.10;;;6.90;99.90;;;;;;5026121;28;20052;-78